Terminal Aerodrome Forecast
Issued by NWS Cleveland, OH

Home | Current Version | Previous Version | Text Only | Print | Product List | Glossary On
Versions: 1 2 3 4 5 6 7 8 9 10 11 12 13 14 15 16 17 18 19 20 21 22 23 24 25 26 27 28 29 30 31 32
260
FTUS41 KCLE 302327
TAFCLE
TAF
KCLE 302327Z 3100/0106 08010KT P6SM SCT045 OVC080
     FM310200 12010KT 6SM -SHRA BR SCT025 OVC045
      TEMPO 3102/3104 3SM -TSRA BR OVC025CB
     FM310800 18010KT 5SM -SHRA BR OVC025
      TEMPO 3108/3112 3SM -DZ BR OVC012
     FM311200 18010KT 3SM -DZ BR OVC008
     FM311600 22010KT 5SM -DZ BR OVC012
     FM312100 29010KT 5SM BR OVC012
     FM010200 31007KT 4SM BR OVC008=

USA.gov is the U.S. government's official web portal to all federal, state and local government web resources and services.